Latest Weather Observations for Flinders Reef

IDQ60801

Issued at 5:32 am EST Sunday 26 April 2015 (issued every 30 minutes, with the page automatically refreshed every 10 minutes)

About weather observations | Map of weather stations | Latest weather observations for QLD | Other Formats
Station Details ID: 200783 Name: FLINDERS REEF Lat: -17.72 Lon: 148.45 Height: 2.6 m
Data from the previous 72 hours. | See also: Recent months at Flinders Reef
Date/Time
EST
Temp
°C
App
Temp
°C
Dew
Point
Rel
Hum
%
Delta-T
°C
Wind Press
QNH
hPa
Press
MSL
hPa
Rain
since 9 am
mm
Dir
 
Spd
km/h
Gust
km/h
Spd
kts
Gust
kts
26/05:30am - - - - - SW 15 19 8 10 1012.0 - -
26/05:24am - - - - - SW 15 15 8 8 1011.9 1011.8 -
26/05:00am - - - - - SW 15 19 8 10 1011.8 - -
26/04:30am - - - - - SW 9 11 5 6 1011.5 - -
26/04:24am - - - - - SW 9 - 5 - - 1011.4 -
26/04:00am - - - - - SW 9 13 5 7 1011.2 - -
26/03:30am - - - - - SW 11 13 6 7 1011.2 - -
26/03:24am - - - - - SW 11 - 6 - - 1011.1 -
26/03:00am - - - - - SW 11 13 6 7 1011.2 - -
26/02:30am - - - - - SW 9 11 5 6 1011.2 - -
26/02:24am - - - - - SW 9 - 5 - - 1011.1 -
26/02:00am - - - - - SW 7 9 4 5 1011.5 - -
26/01:30am - - - - - SW 6 9 3 5 1011.6 - -
26/01:24am - - - - - SW 7 - 4 - - 1011.6 -
26/01:00am - - - - - SW 7 11 4 6 1011.9 - -
26/12:30am - - - - - CALM 0 0 0 0 1012.2 - -
26/12:24am - - - - - CALM 0 - 0 - - 1012.1 -
26/12:00am - - - - - CALM 0 0 0 0 1012.4 - -
 
Date/Time
EST
Temp
°C
App
Temp
°C
Dew
Point
Rel
Hum
%
Delta-T
°C
Wind Press
QNH
hPa
Press
MSL
hPa
Rain
since 9 am
mm
Dir
 
Spd
km/h
Gust
km/h
Spd
kts
Gust
kts
25/11:30pm - - - - - CALM 0 0 0 0 1012.4 - -
25/11:24pm - - - - - CALM 0 - 0 - - 1012.4 -
25/11:00pm - - - - - CALM 0 0 0 0 1012.6 - -
25/10:30pm - - - - - CALM 0 0 0 0 1012.9 - -
25/10:24pm - - - - - CALM 0 - 0 - - 1012.8 -
25/10:00pm - - - - - CALM 0 0 0 0 1013.0 - -
25/09:30pm - - - - - SW 6 7 3 4 1013.0 - -
25/09:24pm - - - - - SW 6 - 3 - - 1013.0 -
25/09:00pm - - - - - SW 7 9 4 5 1013.2 - -
25/08:30pm - - - - - SW 9 11 5 6 1013.0 - -
25/08:24pm - - - - - SW 9 - 5 - - 1012.9 -
25/08:00pm - - - - - SW 11 13 6 7 1012.7 - -
25/07:30pm - - - - - SW 11 15 6 8 1012.4 - -
25/07:24pm - - - - - SW 13 - 7 - - 1012.2 -
25/07:00pm - - - - - SW 11 15 6 8 1012.0 - -
25/06:30pm - - - - - SW 11 15 6 8 1011.5 - -
25/06:24pm - - - - - SW 11 - 6 - - 1011.4 -
25/06:00pm - - - - - SW 11 13 6 7 1011.5 - -
25/05:30pm - - - - - SW 13 15 7 8 1011.3 - -
25/05:24pm - - - - - SW 13 - 7 - - 1011.2 -
25/05:00pm - - - - - SW 13 19 7 10 1010.9 - -
25/04:30pm - - - - - SW 15 19 8 10 1010.6 - -
25/04:24pm - - - - - SW 15 - 8 - - 1010.4 -
25/04:00pm - - - - - SW 15 19 8 10 1010.4 - -
25/03:30pm - - - - - SW 13 17 7 9 1010.1 - -
25/03:24pm - - - - - SW 13 - 7 - - 1010.0 -
25/03:00pm - - - - - SW 13 17 7 9 1010.2 - -
25/02:30pm - - - - - SW 15 19 8 10 1010.2 - -
25/02:24pm - - - - - SW 15 - 8 - - 1010.1 -
25/02:00pm - - - - - SW 13 17 7 9 1010.4 - -
25/01:30pm - - - - - SW 13 15 7 8 1010.5 - -
25/01:24pm - - - - - SW 13 - 7 - - 1010.5 -
25/01:00pm - - - - - SW 11 15 6 8 1010.7 - -
25/12:30pm - - - - - SSE 13 15 7 8 1010.9 - -
25/12:24pm - - - - - SE 11 - 6 - - 1010.9 -
25/12:00pm - - - - - SE 11 15 6 8 1011.1 - -
25/11:30am - - - - - SE 11 13 6 7 1011.5 - -
25/11:24am - - - - - SE 11 - 6 - - 1011.4 -
25/11:00am - - - - - SE 11 15 6 8 1011.8 - -
25/10:30am - - - - - SE 11 15 6 8 1012.0 - -
25/10:24am - - - - - SE 11 - 6 - - 1012.1 -
25/10:00am - - - - - ESE 9 15 5 8 1012.4 - -
25/09:30am - - - - - ESE 11 13 6 7 1012.5 - -
25/09:24am - - - - - ESE 9 - 5 - - 1012.4 -
25/09:00am - - - - - ESE 11 15 6 8 1012.4 - -
25/08:30am - - - - - ESE 11 15 6 8 1012.2 - -
25/08:24am - - - - - ESE 11 - 6 - - 1012.0 -
25/08:00am - - - - - ESE 11 13 6 7 1012.0 - -
25/07:30am - - - - - ESE 9 13 5 7 1011.6 - -
25/07:24am - - - - - ESE 9 - 5 - - 1011.4 -
25/07:00am - - - - - ESE 11 13 6 7 1011.3 - -
25/06:30am - - - - - ESE 9 15 5 8 1011.0 - -
25/06:24am - - - - - ESE 9 - 5 - - 1010.9 -
25/06:00am - - - - - ESE 11 13 6 7 1010.8 - -
25/05:30am - - - - - SE 11 15 6 8 1010.4 - -
25/05:24am - - - - - SE 11 - 6 - - 1010.3 -
25/05:00am - - - - - SE 11 15 6 8 1010.3 - -
25/04:30am - - - - - SE 13 15 7 8 1010.3 - -
25/04:24am - - - - - SE 13 - 7 - - 1010.2 -
25/04:00am - - - - - SE 13 17 7 9 1010.1 - -
25/03:30am - - - - - SE 15 17 8 9 1010.0 - -
25/03:24am - - - - - SE 13 - 7 - - 1009.9 -
25/03:00am - - - - - SE 15 19 8 10 1010.0 - -
25/02:30am - - - - - SE 13 17 7 9 1010.2 - -
25/02:24am - - - - - SE 13 - 7 - - 1010.1 -
25/02:00am - - - - - SSE 13 17 7 9 1010.2 - -
25/01:30am - - - - - S 13 17 7 9 1010.3 - -
25/01:24am - - - - - S 13 - 7 - - 1010.2 -
25/01:00am - - - - - S 13 15 7 8 1010.5 - -
25/12:30am - - - - - S 13 19 7 10 1010.7 - -
25/12:24am - - - - - S 13 - 7 - - 1010.7 -
25/12:00am - - - - - S 13 17 7 9 1010.8 - -
 
Date/Time
EST
Temp
°C
App
Temp
°C
Dew
Point
Rel
Hum
%
Delta-T
°C
Wind Press
QNH
hPa
Press
MSL
hPa
Rain
since 9 am
mm
Dir
 
Spd
km/h
Gust
km/h
Spd
kts
Gust
kts
24/11:30pm - - - - - S 13 17 7 9 1011.1 - -
24/11:24pm - - - - - S 13 - 7 - - 1011.0 -
24/11:00pm - - - - - S 13 15 7 8 1011.3 - -
24/10:30pm - - - - - CALM 0 9 0 5 1011.4 - -
24/10:24pm - - - - - CALM 0 - 0 - - 1011.4 -
24/10:00pm - - - - - SSW 6 11 3 6 1011.5 - -
24/09:30pm - - - - - SSW 9 11 5 6 1011.5 - -
24/09:24pm - - - - - SSW 9 - 5 - - 1011.4 -
24/09:00pm - - - - - SSW 7 11 4 6 1011.5 - -
24/08:30pm - - - - - SSW 9 13 5 7 1011.3 - -
24/08:24pm - - - - - SSW 9 - 5 - - 1011.2 -
24/08:00pm - - - - - SSW 13 17 7 9 1011.1 - -
24/07:30pm - - - - - SSW 11 15 6 8 1010.8 - -
24/07:24pm - - - - - SSW 11 - 6 - - 1010.6 -
24/07:00pm - - - - - SSW 13 17 7 9 1010.4 - -
24/06:30pm - - - - - SSW 11 15 6 8 1010.2 - -
24/06:24pm - - - - - SSW 11 - 6 - - 1010.1 -
24/06:00pm - - - - - SSW 13 17 7 9 1009.9 - -
24/05:30pm - - - - - SSW 11 17 6 9 1009.6 - -
24/05:24pm - - - - - SSW 13 - 7 - - 1009.5 -
24/05:00pm - - - - - SSW 15 19 8 10 1009.4 - -
24/04:30pm - - - - - SSW 15 19 8 10 1009.1 - -
24/04:24pm - - - - - SSW 15 - 8 - - 1009.0 -
24/04:00pm - - - - - SSW 15 19 8 10 1009.1 - -
24/03:30pm - - - - - SSW 17 20 9 11 1009.3 - -
24/03:24pm - - - - - SSW 15 - 8 - - 1009.1 -
24/03:00pm - - - - - SSE 13 17 7 9 1009.4 - -
24/02:30pm - - - - - SSE 15 19 8 10 1009.4 - -
24/02:24pm - - - - - SSE 15 - 8 - - 1009.3 -
24/02:00pm - - - - - SSE 15 20 8 11 1009.6 - -
24/01:30pm - - - - - SSE 15 19 8 10 1009.6 - -
24/01:24pm - - - - - SSE 17 - 9 - - 1009.6 -
24/01:00pm - - - - - SSE 17 20 9 11 1009.9 - -
24/12:30pm - - - - - SSE 17 20 9 11 1010.2 - -
24/12:24pm - - - - - SSE 19 - 10 - - 1010.3 -
24/12:00pm - - - - - SE 15 20 8 11 1010.7 - -
24/11:30am - - - - - SE 15 19 8 10 1011.1 - -
24/11:24am - - - - - SE 15 - 8 - - 1011.1 -
24/11:00am - - - - - SE 13 17 7 9 1011.4 - -
24/10:30am - - - - - SE 13 17 7 9 1011.8 - -
24/10:24am - - - - - SE 13 - 7 - - 1011.7 -
24/10:00am - - - - - SE 13 17 7 9 1011.8 - -
24/09:30am - - - - - SE 15 19 8 10 1011.9 - -
24/09:24am - - - - - SE 15 - 8 - - 1011.8 -
24/09:00am - - - - - SE 15 20 8 11 1011.8 - -
24/08:30am - - - - - SE 17 20 9 11 1011.7 - -
24/08:24am - - - - - SE 13 - 7 - - 1011.6 -
24/08:00am - - - - - SE 17 20 9 11 1011.6 - -
24/07:30am - - - - - SE 15 20 8 11 1011.4 - -
24/07:24am - - - - - SE 17 - 9 - - 1011.2 -
24/07:00am - - - - - SE 17 20 9 11 1011.1 - -
24/06:30am - - - - - SE 15 17 8 9 1010.9 - -
24/06:24am - - - - - SE 15 - 8 - - 1010.7 -
24/06:00am - - - - - SE 17 20 9 11 1010.6 - -
24/05:30am - - - - - ESE 15 19 8 10 1010.4 - -
24/05:24am - - - - - ESE 15 - 8 - - 1010.3 -
24/05:00am - - - - - ESE 19 22 10 12 1010.0 - -
24/04:30am - - - - - SE 20 26 11 14 1009.8 - -
24/04:24am - - - - - ESE 20 - 11 - - 1009.6 -
24/04:00am - - - - - ESE 22 28 12 15 1009.7 - -
24/03:30am - - - - - SE 22 28 12 15 1009.8 - -
24/03:24am - - - - - SE 22 - 12 - - 1009.7 -
24/03:00am - - - - - SE 22 28 12 15 1010.0 - -
24/02:30am - - - - - SE 20 26 11 14 1010.3 - -
24/02:24am - - - - - SE 20 - 11 - - 1010.2 -
24/02:00am - - - - - SE 20 24 11 13 1010.4 - -
24/01:30am - - - - - SE 19 24 10 13 1010.5 - -
24/01:24am - - - - - SE 19 - 10 - - 1010.4 -
24/01:00am - - - - - ESE 19 24 10 13 1010.7 - -
24/12:30am - - - - - SE 20 26 11 14 1011.0 - -
24/12:24am - - - - - SE 20 - 11 - - 1010.9 -
24/12:00am - - - - - SE 19 24 10 13 1011.2 - -
 
Date/Time
EST
Temp
°C
App
Temp
°C
Dew
Point
Rel
Hum
%
Delta-T
°C
Wind Press
QNH
hPa
Press
MSL
hPa
Rain
since 9 am
mm
Dir
 
Spd
km/h
Gust
km/h
Spd
kts
Gust
kts
23/11:30pm - - - - - SE 19 22 10 12 1011.4 - -
23/11:24pm - - - - - SE 19 - 10 - - 1011.2 -
23/11:00pm - - - - - SE 20 24 11 13 1011.4 - -
23/10:30pm - - - - - SE 22 28 12 15 1011.6 - -
23/10:24pm - - - - - SE 22 - 12 - - 1011.4 -
23/10:00pm - - - - - SE 20 28 11 15 1011.6 - -
23/09:30pm - - - - - SE 22 28 12 15 1011.6 - -
23/09:24pm - - - - - SE 22 - 12 - - 1011.5 -
23/09:00pm - - - - - SSE 22 28 12 15 1011.4 - -
23/08:30pm - - - - - SSE 20 26 11 14 1011.4 - -
23/08:24pm - - - - - SSE 20 - 11 - - 1011.4 -
23/08:00pm - - - - - SSE 20 26 11 14 1011.4 - -
23/07:30pm - - - - - S 22 26 12 14 1011.0 - -
23/07:24pm - - - - - S 20 - 11 - - 1010.8 -
23/07:00pm - - - - - S 22 28 12 15 1010.7 - -
23/06:30pm - - - - - S 24 30 13 16 1010.1 - -
23/06:24pm - - - - - S 24 - 13 - - 1009.9 -
23/06:00pm - - - - - S 26 30 14 16 1009.7 - -
23/05:30pm - - - - - SSE 26 32 14 17 1009.6 - -
23/05:24pm - - - - - SSE 26 - 14 - - 1009.4 -
23/05:00pm - - - - - SSE 24 30 13 16 1009.4 - -
23/04:30pm - - - - - SSE 26 30 14 16 1009.1 - -
23/04:24pm - - - - - SSE 26 - 14 - - 1009.1 -
23/04:00pm - - - - - SSE 26 30 14 16 1009.0 - -
23/03:30pm - - - - - SSE 26 32 14 17 1008.8 - -
23/03:24pm - - - - - SSE 28 - 15 - - 1008.8 -
23/03:00pm - - - - - SSE 28 33 15 18 1008.8 - -
23/02:30pm - - - - - SSE 28 33 15 18 1009.0 - -
23/02:24pm - - - - - SSE 28 - 15 - - 1008.9 -
23/02:00pm - - - - - SSE 30 33 16 18 1009.4 - -
23/01:30pm - - - - - SSE 30 35 16 19 1009.7 - -
23/01:24pm - - - - - SSE 28 - 15 - - 1009.7 -
23/01:00pm - - - - - SSE 32 35 17 19 1010.2 - -
23/12:30pm - - - - - SSE 32 35 17 19 1010.7 - -
23/12:24pm - - - - - SSE 30 - 16 - - 1010.7 -
23/12:00pm - - - - - S 32 39 17 21 1011.2 - -
23/11:30am - - - - - SSE 32 35 17 19 1011.7 - -
23/11:24am - - - - - SSE 32 - 17 - - 1011.7 -
23/11:00am - - - - - SSE 32 39 17 21 1012.1 - -
23/10:30am - - - - - SSE 33 39 18 21 1012.5 - -
23/10:24am - - - - - SSE 33 - 18 - - 1012.5 -
23/10:00am - - - - - SSE 33 39 18 21 1012.8 - -
23/09:30am - - - - - S 33 39 18 21 1012.9 - -
23/09:24am - - - - - S 33 - 18 - - 1012.9 -
23/09:00am - - - - - S 35 44 19 24 1012.7 - -
23/08:30am - - - - - S 35 43 19 23 1012.6 - -
23/08:24am - - - - - S 35 - 19 - - 1012.4 -
23/08:00am - - - - - S 32 37 17 20 1012.4 - -
23/07:30am - - - - - S 33 37 18 20 1012.1 - -
23/07:24am - - - - - SSE 33 - 18 - - 1011.9 -
23/07:00am - - - - - S 30 35 16 19 1011.9 - -
23/06:30am - - - - - S 30 35 16 19 1011.6 - -
23/06:24am - - - - - S 30 - 16 - - 1011.5 -
23/06:00am - - - - - SSE 32 35 17 19 1011.2 - -

Other Formats:

Comma delimited format used in spreadsheet applications
http://www.bom.gov.au/fwo/IDQ60801/IDQ60801.94290.axf

JavaScript Object Notation format (JSON) in row-major order
http://www.bom.gov.au/fwo/IDQ60801/IDQ60801.94290.json